sensor_id;sensor_type;location;lat;lon;timestamp;P1;durP1;ratioP1;P2;durP2;ratioP2
5900;SDS011;2976;49.764;9.796;2022-11-15T00:01:38;3.33;;;2.20;;
5900;SDS011;2976;49.764;9.796;2022-11-15T00:04:04;2.60;;;2.17;;
5900;SDS011;2976;49.764;9.796;2022-11-15T00:06:30;3.70;;;2.30;;
5900;SDS011;2976;49.764;9.796;2022-11-15T00:08:58;2.70;;;2.20;;
5900;SDS011;2976;49.764;9.796;2022-11-15T00:11:25;2.40;;;2.20;;
5900;SDS011;2976;49.764;9.796;2022-11-15T00:13:51;10.70;;;2.40;;
5900;SDS011;2976;49.764;9.796;2022-11-15T00:16:19;3.20;;;2.40;;
5900;SDS011;2976;49.764;9.796;2022-11-15T00:18:45;2.47;;;2.27;;
5900;SDS011;2976;49.764;9.796;2022-11-15T00:21:11;2.60;;;1.80;;
5900;SDS011;2976;49.764;9.796;2022-11-15T00:23:38;2.90;;;2.60;;
5900;SDS011;2976;49.764;9.796;2022-11-15T00:26:03;4.63;;;2.47;;
5900;SDS011;2976;49.764;9.796;2022-11-15T00:28:29;2.97;;;2.30;;
5900;SDS011;2976;49.764;9.796;2022-11-15T00:31:02;2.97;;;2.47;;
5900;SDS011;2976;49.764;9.796;2022-11-15T00:33:28;6.23;;;2.17;;
5900;SDS011;2976;49.764;9.796;2022-11-15T00:36:07;3.43;;;2.47;;
5900;SDS011;2976;49.764;9.796;2022-11-15T00:38:35;3.13;;;2.33;;
5900;SDS011;2976;49.764;9.796;2022-11-15T00:41:03;2.83;;;2.63;;
5900;SDS011;2976;49.764;9.796;2022-11-15T00:43:29;7.53;;;2.57;;
5900;SDS011;2976;49.764;9.796;2022-11-15T00:45:55;8.70;;;2.77;;
5900;SDS011;2976;49.764;9.796;2022-11-15T00:48:20;5.30;;;2.47;;
5900;SDS011;2976;49.764;9.796;2022-11-15T00:50:46;2.70;;;2.40;;
5900;SDS011;2976;49.764;9.796;2022-11-15T00:53:12;2.83;;;2.40;;
5900;SDS011;2976;49.764;9.796;2022-11-15T00:55:38;5.37;;;3.63;;
5900;SDS011;2976;49.764;9.796;2022-11-15T00:58:03;4.10;;;2.80;;
5900;SDS011;2976;49.764;9.796;2022-11-15T01:00:29;3.50;;;2.23;;
5900;SDS011;2976;49.764;9.796;2022-11-15T01:02:55;5.23;;;2.30;;
5900;SDS011;2976;49.764;9.796;2022-11-15T01:05:20;2.60;;;2.40;;
5900;SDS011;2976;49.764;9.796;2022-11-15T01:07:46;3.73;;;2.40;;
5900;SDS011;2976;49.764;9.796;2022-11-15T01:10:11;6.17;;;2.73;;
5900;SDS011;2976;49.764;9.796;2022-11-15T01:12:37;4.87;;;3.50;;
5900;SDS011;2976;49.764;9.796;2022-11-15T01:15:03;6.40;;;3.30;;
5900;SDS011;2976;49.764;9.796;2022-11-15T01:17:30;3.77;;;2.60;;
5900;SDS011;2976;49.764;9.796;2022-11-15T01:19:56;9.37;;;2.63;;
5900;SDS011;2976;49.764;9.796;2022-11-15T01:22:21;5.60;;;2.80;;
5900;SDS011;2976;49.764;9.796;2022-11-15T01:24:48;3.70;;;2.53;;
5900;SDS011;2976;49.764;9.796;2022-11-15T01:27:15;3.37;;;2.57;;
5900;SDS011;2976;49.764;9.796;2022-11-15T01:29:40;2.53;;;2.33;;
5900;SDS011;2976;49.764;9.796;2022-11-15T01:32:06;1.87;;;1.77;;
5900;SDS011;2976;49.764;9.796;2022-11-15T01:34:31;2.27;;;2.07;;
5900;SDS011;2976;49.764;9.796;2022-11-15T01:36:57;2.40;;;1.93;;
5900;SDS011;2976;49.764;9.796;2022-11-15T01:39:23;2.23;;;2.03;;
5900;SDS011;2976;49.764;9.796;2022-11-15T01:41:49;2.43;;;2.07;;
5900;SDS011;2976;49.764;9.796;2022-11-15T01:46:59;6.77;;;2.40;;
5900;SDS011;2976;49.764;9.796;2022-11-15T01:49:27;2.20;;;2.10;;
5900;SDS011;2976;49.764;9.796;2022-11-15T01:51:57;4.60;;;2.37;;
5900;SDS011;2976;49.764;9.796;2022-11-15T01:54:23;4.07;;;2.53;;
5900;SDS011;2976;49.764;9.796;2022-11-15T01:56:58;6.30;;;2.70;;
5900;SDS011;2976;49.764;9.796;2022-11-15T01:59:28;3.20;;;2.33;;
5900;SDS011;2976;49.764;9.796;2022-11-15T02:01:53;2.27;;;2.10;;
5900;SDS011;2976;49.764;9.796;2022-11-15T02:04:29;9.53;;;2.53;;
5900;SDS011;2976;49.764;9.796;2022-11-15T02:06:57;3.37;;;2.40;;
5900;SDS011;2976;49.764;9.796;2022-11-15T02:09:24;5.43;;;2.17;;
5900;SDS011;2976;49.764;9.796;2022-11-15T02:11:50;2.20;;;1.87;;
5900;SDS011;2976;49.764;9.796;2022-11-15T02:14:19;4.53;;;2.33;;
5900;SDS011;2976;49.764;9.796;2022-11-15T02:30:46;2.23;;;2.13;;
5900;SDS011;2976;49.764;9.796;2022-11-15T02:36:17;2.70;;;2.50;;
5900;SDS011;2976;49.764;9.796;2022-11-15T02:38:52;5.20;;;2.60;;
5900;SDS011;2976;49.764;9.796;2022-11-15T02:41:28;4.17;;;2.80;;
5900;SDS011;2976;49.764;9.796;2022-11-15T02:44:00;6.27;;;2.80;;
5900;SDS011;2976;49.764;9.796;2022-11-15T02:46:38;2.83;;;2.53;;
5900;SDS011;2976;49.764;9.796;2022-11-15T02:49:28;6.10;;;2.70;;
5900;SDS011;2976;49.764;9.796;2022-11-15T02:51:56;3.17;;;2.27;;
5900;SDS011;2976;49.764;9.796;2022-11-15T02:54:22;5.20;;;4.30;;
5900;SDS011;2976;49.764;9.796;2022-11-15T02:56:55;6.70;;;2.97;;
5900;SDS011;2976;49.764;9.796;2022-11-15T03:04:43;3.77;;;2.50;;
5900;SDS011;2976;49.764;9.796;2022-11-15T03:10:12;5.63;;;3.20;;
5900;SDS011;2976;49.764;9.796;2022-11-15T03:12:46;2.63;;;2.43;;
5900;SDS011;2976;49.764;9.796;2022-11-15T03:15:31;6.90;;;2.70;;
5900;SDS011;2976;49.764;9.796;2022-11-15T03:18:06;3.30;;;3.00;;
5900;SDS011;2976;49.764;9.796;2022-11-15T03:20:41;3.43;;;2.40;;
5900;SDS011;2976;49.764;9.796;2022-11-15T03:23:08;3.63;;;2.70;;
5900;SDS011;2976;49.764;9.796;2022-11-15T03:25:37;3.70;;;2.87;;
5900;SDS011;2976;49.764;9.796;2022-11-15T03:28:06;3.83;;;2.67;;
5900;SDS011;2976;49.764;9.796;2022-11-15T03:30:37;2.73;;;2.53;;
5900;SDS011;2976;49.764;9.796;2022-11-15T03:33:04;3.63;;;3.00;;
5900;SDS011;2976;49.764;9.796;2022-11-15T03:35:33;5.90;;;3.30;;
5900;SDS011;2976;49.764;9.796;2022-11-15T03:38:11;5.67;;;3.23;;
5900;SDS011;2976;49.764;9.796;2022-11-15T03:40:47;4.23;;;3.30;;
5900;SDS011;2976;49.764;9.796;2022-11-15T03:46:28;8.30;;;3.10;;
5900;SDS011;2976;49.764;9.796;2022-11-15T03:49:02;3.53;;;3.17;;
5900;SDS011;2976;49.764;9.796;2022-11-15T03:51:35;5.17;;;2.80;;
5900;SDS011;2976;49.764;9.796;2022-11-15T03:54:02;5.33;;;2.83;;
5900;SDS011;2976;49.764;9.796;2022-11-15T03:56:29;8.73;;;3.47;;
5900;SDS011;2976;49.764;9.796;2022-11-15T03:58:55;4.10;;;2.60;;
5900;SDS011;2976;49.764;9.796;2022-11-15T04:01:20;6.77;;;2.97;;
5900;SDS011;2976;49.764;9.796;2022-11-15T04:03:46;9.43;;;3.40;;
5900;SDS011;2976;49.764;9.796;2022-11-15T04:06:11;4.17;;;2.77;;
5900;SDS011;2976;49.764;9.796;2022-11-15T04:08:37;6.20;;;3.57;;
5900;SDS011;2976;49.764;9.796;2022-11-15T04:11:02;5.43;;;3.13;;
5900;SDS011;2976;49.764;9.796;2022-11-15T04:13:28;4.50;;;2.60;;
5900;SDS011;2976;49.764;9.796;2022-11-15T04:15:53;7.07;;;3.07;;
5900;SDS011;2976;49.764;9.796;2022-11-15T04:18:19;4.97;;;3.23;;
5900;SDS011;2976;49.764;9.796;2022-11-15T04:20:44;3.20;;;3.00;;
5900;SDS011;2976;49.764;9.796;2022-11-15T04:23:29;4.33;;;3.00;;
5900;SDS011;2976;49.764;9.796;2022-11-15T04:26:32;3.00;;;2.70;;
5900;SDS011;2976;49.764;9.796;2022-11-15T04:28:58;5.63;;;3.17;;
5900;SDS011;2976;49.764;9.796;2022-11-15T04:31:42;4.97;;;3.37;;
5900;SDS011;2976;49.764;9.796;2022-11-15T04:34:08;5.67;;;3.17;;
5900;SDS011;2976;49.764;9.796;2022-11-15T04:36:33;4.70;;;3.20;;
5900;SDS011;2976;49.764;9.796;2022-11-15T04:39:17;5.93;;;2.60;;
5900;SDS011;2976;49.764;9.796;2022-11-15T04:41:43;5.73;;;3.40;;
5900;SDS011;2976;49.764;9.796;2022-11-15T04:44:08;11.40;;;2.93;;
5900;SDS011;2976;49.764;9.796;2022-11-15T04:46:34;9.10;;;3.30;;
5900;SDS011;2976;49.764;9.796;2022-11-15T04:49:00;5.03;;;3.00;;
5900;SDS011;2976;49.764;9.796;2022-11-15T04:51:25;7.00;;;3.00;;
5900;SDS011;2976;49.764;9.796;2022-11-15T04:53:51;7.27;;;3.10;;
5900;SDS011;2976;49.764;9.796;2022-11-15T04:56:16;5.43;;;3.30;;
5900;SDS011;2976;49.764;9.796;2022-11-15T04:58:42;4.93;;;3.40;;
5900;SDS011;2976;49.764;9.796;2022-11-15T05:01:08;4.93;;;3.23;;
5900;SDS011;2976;49.764;9.796;2022-11-15T05:03:39;3.87;;;3.00;;
5900;SDS011;2976;49.764;9.796;2022-11-15T05:06:24;2.83;;;2.37;;
5900;SDS011;2976;49.764;9.796;2022-11-15T05:08:49;2.63;;;2.43;;
5900;SDS011;2976;49.764;9.796;2022-11-15T05:11:15;3.93;;;3.50;;
5900;SDS011;2976;49.764;9.796;2022-11-15T05:13:41;4.80;;;3.30;;
5900;SDS011;2976;49.764;9.796;2022-11-15T05:16:06;10.20;;;4.30;;
5900;SDS011;2976;49.764;9.796;2022-11-15T05:18:32;4.67;;;3.40;;
5900;SDS011;2976;49.764;9.796;2022-11-15T05:21:04;3.60;;;2.53;;
5900;SDS011;2976;49.764;9.796;2022-11-15T05:23:30;3.27;;;2.97;;
5900;SDS011;2976;49.764;9.796;2022-11-15T05:25:59;3.03;;;2.83;;
5900;SDS011;2976;49.764;9.796;2022-11-15T05:28:28;4.40;;;3.10;;
5900;SDS011;2976;49.764;9.796;2022-11-15T05:31:01;3.30;;;2.73;;
5900;SDS011;2976;49.764;9.796;2022-11-15T05:33:27;6.57;;;3.73;;
5900;SDS011;2976;49.764;9.796;2022-11-15T05:36:04;5.53;;;3.07;;
5900;SDS011;2976;49.764;9.796;2022-11-15T05:38:35;4.20;;;3.30;;
5900;SDS011;2976;49.764;9.796;2022-11-15T05:41:00;7.80;;;3.93;;
5900;SDS011;2976;49.764;9.796;2022-11-15T05:43:29;6.70;;;4.20;;
5900;SDS011;2976;49.764;9.796;2022-11-15T05:45:58;7.20;;;5.10;;
5900;SDS011;2976;49.764;9.796;2022-11-15T05:48:24;10.40;;;5.37;;
5900;SDS011;2976;49.764;9.796;2022-11-15T05:50:50;10.47;;;4.97;;
5900;SDS011;2976;49.764;9.796;2022-11-15T05:53:18;8.77;;;4.90;;
5900;SDS011;2976;49.764;9.796;2022-11-15T05:55:46;8.27;;;5.60;;
5900;SDS011;2976;49.764;9.796;2022-11-15T05:58:12;5.87;;;5.20;;
5900;SDS011;2976;49.764;9.796;2022-11-15T06:00:38;6.50;;;4.33;;
5900;SDS011;2976;49.764;9.796;2022-11-15T06:03:04;8.23;;;4.67;;
5900;SDS011;2976;49.764;9.796;2022-11-15T06:05:29;5.63;;;4.87;;
5900;SDS011;2976;49.764;9.796;2022-11-15T06:07:58;7.90;;;5.50;;
5900;SDS011;2976;49.764;9.796;2022-11-15T06:10:24;8.57;;;5.70;;
5900;SDS011;2976;49.764;9.796;2022-11-15T06:13:23;11.77;;;6.97;;
5900;SDS011;2976;49.764;9.796;2022-11-15T06:15:41;7.03;;;5.07;;
5900;SDS011;2976;49.764;9.796;2022-11-15T06:18:07;7.60;;;5.60;;
5900;SDS011;2976;49.764;9.796;2022-11-15T06:20:32;8.00;;;4.83;;
5900;SDS011;2976;49.764;9.796;2022-11-15T06:23:02;5.30;;;4.80;;
5900;SDS011;2976;49.764;9.796;2022-11-15T06:25:29;7.47;;;5.10;;
5900;SDS011;2976;49.764;9.796;2022-11-15T06:27:55;7.53;;;5.50;;
5900;SDS011;2976;49.764;9.796;2022-11-15T06:30:23;14.30;;;6.70;;
5900;SDS011;2976;49.764;9.796;2022-11-15T06:32:49;6.77;;;5.17;;
5900;SDS011;2976;49.764;9.796;2022-11-15T06:35:15;8.97;;;5.50;;
5900;SDS011;2976;49.764;9.796;2022-11-15T06:37:41;10.13;;;6.40;;
5900;SDS011;2976;49.764;9.796;2022-11-15T06:40:08;14.73;;;6.10;;
5900;SDS011;2976;49.764;9.796;2022-11-15T06:42:34;6.47;;;4.87;;
5900;SDS011;2976;49.764;9.796;2022-11-15T06:45:00;9.63;;;5.20;;
5900;SDS011;2976;49.764;9.796;2022-11-15T06:47:26;8.73;;;4.40;;
5900;SDS011;2976;49.764;9.796;2022-11-15T06:49:51;6.73;;;3.77;;
5900;SDS011;2976;49.764;9.796;2022-11-15T06:52:17;5.27;;;4.00;;
5900;SDS011;2976;49.764;9.796;2022-11-15T06:54:44;8.27;;;3.70;;
5900;SDS011;2976;49.764;9.796;2022-11-15T06:57:10;8.50;;;3.60;;
5900;SDS011;2976;49.764;9.796;2022-11-15T06:59:35;7.23;;;4.07;;
5900;SDS011;2976;49.764;9.796;2022-11-15T07:02:01;6.00;;;3.40;;
5900;SDS011;2976;49.764;9.796;2022-11-15T07:04:27;5.63;;;4.30;;
5900;SDS011;2976;49.764;9.796;2022-11-15T07:06:53;8.03;;;4.43;;
5900;SDS011;2976;49.764;9.796;2022-11-15T07:09:18;10.23;;;4.07;;
5900;SDS011;2976;49.764;9.796;2022-11-15T07:11:44;4.80;;;3.93;;
5900;SDS011;2976;49.764;9.796;2022-11-15T07:14:09;5.90;;;3.53;;
5900;SDS011;2976;49.764;9.796;2022-11-15T07:16:35;9.63;;;3.20;;
5900;SDS011;2976;49.764;9.796;2022-11-15T07:19:01;4.77;;;3.40;;
5900;SDS011;2976;49.764;9.796;2022-11-15T07:21:27;5.47;;;3.17;;
5900;SDS011;2976;49.764;9.796;2022-11-15T07:23:53;3.37;;;3.07;;
5900;SDS011;2976;49.764;9.796;2022-11-15T07:26:18;3.83;;;3.33;;
5900;SDS011;2976;49.764;9.796;2022-11-15T07:28:44;7.30;;;3.00;;
5900;SDS011;2976;49.764;9.796;2022-11-15T07:31:09;3.80;;;3.50;;
5900;SDS011;2976;49.764;9.796;2022-11-15T07:33:35;4.70;;;2.60;;
5900;SDS011;2976;49.764;9.796;2022-11-15T07:36:01;7.97;;;3.97;;
5900;SDS011;2976;49.764;9.796;2022-11-15T07:38:28;3.47;;;3.13;;
5900;SDS011;2976;49.764;9.796;2022-11-15T07:40:57;4.17;;;3.10;;
5900;SDS011;2976;49.764;9.796;2022-11-15T07:43:24;3.03;;;2.70;;
5900;SDS011;2976;49.764;9.796;2022-11-15T07:45:50;3.50;;;2.80;;
5900;SDS011;2976;49.764;9.796;2022-11-15T07:48:15;5.80;;;2.60;;
5900;SDS011;2976;49.764;9.796;2022-11-15T07:50:41;4.10;;;2.90;;
5900;SDS011;2976;49.764;9.796;2022-11-15T07:53:07;7.00;;;2.67;;
5900;SDS011;2976;49.764;9.796;2022-11-15T07:55:33;4.03;;;2.80;;
5900;SDS011;2976;49.764;9.796;2022-11-15T07:58:06;4.90;;;3.50;;
5900;SDS011;2976;49.764;9.796;2022-11-15T08:00:33;6.17;;;2.30;;
5900;SDS011;2976;49.764;9.796;2022-11-15T08:03:09;4.60;;;3.10;;
5900;SDS011;2976;49.764;9.796;2022-11-15T08:05:36;6.00;;;3.90;;
5900;SDS011;2976;49.764;9.796;2022-11-15T08:08:04;6.17;;;3.37;;
5900;SDS011;2976;49.764;9.796;2022-11-15T08:10:29;7.67;;;5.20;;
5900;SDS011;2976;49.764;9.796;2022-11-15T08:12:59;14.17;;;8.80;;
5900;SDS011;2976;49.764;9.796;2022-11-15T08:15:28;8.03;;;6.00;;
5900;SDS011;2976;49.764;9.796;2022-11-15T08:17:58;8.33;;;4.33;;
5900;SDS011;2976;49.764;9.796;2022-11-15T08:20:28;5.50;;;3.90;;
5900;SDS011;2976;49.764;9.796;2022-11-15T08:22:55;5.60;;;3.77;;
5900;SDS011;2976;49.764;9.796;2022-11-15T08:25:22;3.67;;;3.37;;
5900;SDS011;2976;49.764;9.796;2022-11-15T08:27:50;4.77;;;3.40;;
5900;SDS011;2976;49.764;9.796;2022-11-15T08:30:16;3.77;;;3.13;;
5900;SDS011;2976;49.764;9.796;2022-11-15T08:32:42;3.33;;;2.77;;
5900;SDS011;2976;49.764;9.796;2022-11-15T08:35:07;5.53;;;3.50;;
5900;SDS011;2976;49.764;9.796;2022-11-15T08:37:33;5.33;;;4.13;;
5900;SDS011;2976;49.764;9.796;2022-11-15T08:39:59;6.50;;;4.00;;
5900;SDS011;2976;49.764;9.796;2022-11-15T08:42:25;7.13;;;3.80;;
5900;SDS011;2976;49.764;9.796;2022-11-15T08:44:50;3.83;;;3.37;;
5900;SDS011;2976;49.764;9.796;2022-11-15T08:47:16;6.90;;;4.40;;
5900;SDS011;2976;49.764;9.796;2022-11-15T08:49:41;4.50;;;3.67;;
5900;SDS011;2976;49.764;9.796;2022-11-15T08:52:07;10.33;;;3.27;;
5900;SDS011;2976;49.764;9.796;2022-11-15T08:54:32;7.10;;;3.90;;
5900;SDS011;2976;49.764;9.796;2022-11-15T08:56:58;6.00;;;3.60;;
5900;SDS011;2976;49.764;9.796;2022-11-15T08:59:23;5.93;;;4.40;;
5900;SDS011;2976;49.764;9.796;2022-11-15T09:01:49;6.63;;;4.37;;
5900;SDS011;2976;49.764;9.796;2022-11-15T09:04:14;4.27;;;3.87;;
5900;SDS011;2976;49.764;9.796;2022-11-15T09:06:40;4.07;;;3.43;;
5900;SDS011;2976;49.764;9.796;2022-11-15T09:09:05;5.47;;;3.80;;
5900;SDS011;2976;49.764;9.796;2022-11-15T09:11:31;11.30;;;3.97;;
5900;SDS011;2976;49.764;9.796;2022-11-15T09:13:57;11.50;;;4.40;;
5900;SDS011;2976;49.764;9.796;2022-11-15T09:16:22;6.83;;;4.10;;
5900;SDS011;2976;49.764;9.796;2022-11-15T09:18:48;4.80;;;3.37;;
5900;SDS011;2976;49.764;9.796;2022-11-15T09:21:13;4.60;;;4.03;;
5900;SDS011;2976;49.764;9.796;2022-11-15T09:23:39;5.33;;;4.30;;
5900;SDS011;2976;49.764;9.796;2022-11-15T09:26:05;6.03;;;4.20;;
5900;SDS011;2976;49.764;9.796;2022-11-15T09:28:31;4.53;;;3.83;;
5900;SDS011;2976;49.764;9.796;2022-11-15T09:30:58;7.20;;;3.83;;
5900;SDS011;2976;49.764;9.796;2022-11-15T09:33:28;7.47;;;4.03;;
5900;SDS011;2976;49.764;9.796;2022-11-15T09:35:54;4.17;;;3.40;;
5900;SDS011;2976;49.764;9.796;2022-11-15T09:38:24;7.97;;;4.10;;
5900;SDS011;2976;49.764;9.796;2022-11-15T09:40:51;3.67;;;3.10;;
5900;SDS011;2976;49.764;9.796;2022-11-15T09:43:35;4.50;;;3.53;;
5900;SDS011;2976;49.764;9.796;2022-11-15T09:48:54;5.40;;;3.70;;
5900;SDS011;2976;49.764;9.796;2022-11-15T09:56:26;5.80;;;3.70;;
5900;SDS011;2976;49.764;9.796;2022-11-15T09:58:58;4.57;;;3.57;;
5900;SDS011;2976;49.764;9.796;2022-11-15T10:01:49;8.13;;;4.47;;
5900;SDS011;2976;49.764;9.796;2022-11-15T10:04:46;7.03;;;3.33;;
5900;SDS011;2976;49.764;9.796;2022-11-15T10:07:19;5.73;;;4.20;;
5900;SDS011;2976;49.764;9.796;2022-11-15T10:09:58;5.17;;;3.80;;
5900;SDS011;2976;49.764;9.796;2022-11-15T10:12:29;5.97;;;3.57;;
5900;SDS011;2976;49.764;9.796;2022-11-15T10:15:00;6.33;;;4.57;;
5900;SDS011;2976;49.764;9.796;2022-11-15T10:20:10;5.80;;;3.63;;
5900;SDS011;2976;49.764;9.796;2022-11-15T10:22:49;7.97;;;4.13;;
5900;SDS011;2976;49.764;9.796;2022-11-15T10:27:42;7.40;;;3.67;;
5900;SDS011;2976;49.764;9.796;2022-11-15T10:30:13;4.17;;;3.40;;
5900;SDS011;2976;49.764;9.796;2022-11-15T10:32:43;10.27;;;4.03;;
5900;SDS011;2976;49.764;9.796;2022-11-15T10:35:16;6.00;;;3.03;;
5900;SDS011;2976;49.764;9.796;2022-11-15T10:37:46;5.80;;;4.07;;
5900;SDS011;2976;49.764;9.796;2022-11-15T10:40:17;3.40;;;3.13;;
5900;SDS011;2976;49.764;9.796;2022-11-15T10:42:45;5.77;;;4.33;;
5900;SDS011;2976;49.764;9.796;2022-11-15T10:45:27;5.70;;;3.43;;
5900;SDS011;2976;49.764;9.796;2022-11-15T10:48:18;4.60;;;4.03;;
5900;SDS011;2976;49.764;9.796;2022-11-15T10:50:44;9.60;;;4.40;;
5900;SDS011;2976;49.764;9.796;2022-11-15T10:53:15;5.57;;;4.20;;
5900;SDS011;2976;49.764;9.796;2022-11-15T10:55:46;8.77;;;4.70;;
5900;SDS011;2976;49.764;9.796;2022-11-15T11:01:07;13.73;;;4.97;;
5900;SDS011;2976;49.764;9.796;2022-11-15T11:03:39;9.20;;;5.60;;
5900;SDS011;2976;49.764;9.796;2022-11-15T11:08:34;8.03;;;5.10;;
5900;SDS011;2976;49.764;9.796;2022-11-15T11:11:01;8.77;;;4.97;;
5900;SDS011;2976;49.764;9.796;2022-11-15T11:13:38;12.83;;;5.40;;
5900;SDS011;2976;49.764;9.796;2022-11-15T11:24:22;12.23;;;5.30;;
5900;SDS011;2976;49.764;9.796;2022-11-15T11:32:56;4.63;;;2.90;;
5900;SDS011;2976;49.764;9.796;2022-11-15T11:38:34;4.60;;;3.50;;
5900;SDS011;2976;49.764;9.796;2022-11-15T11:44:32;7.20;;;3.80;;
5900;SDS011;2976;49.764;9.796;2022-11-15T11:47:14;4.07;;;3.33;;
5900;SDS011;2976;49.764;9.796;2022-11-15T11:50:10;5.20;;;3.03;;
5900;SDS011;2976;49.764;9.796;2022-11-15T11:58:33;6.93;;;4.03;;
5900;SDS011;2976;49.764;9.796;2022-11-15T12:03:35;4.90;;;2.50;;
5900;SDS011;2976;49.764;9.796;2022-11-15T12:11:55;5.40;;;4.00;;
5900;SDS011;2976;49.764;9.796;2022-11-15T12:17:11;9.10;;;7.23;;
5900;SDS011;2976;49.764;9.796;2022-11-15T12:19:37;11.97;;;7.07;;
5900;SDS011;2976;49.764;9.796;2022-11-15T12:22:10;7.43;;;5.80;;
5900;SDS011;2976;49.764;9.796;2022-11-15T12:30:12;9.73;;;4.10;;
5900;SDS011;2976;49.764;9.796;2022-11-15T12:32:50;4.80;;;2.53;;
5900;SDS011;2976;49.764;9.796;2022-11-15T12:35:34;5.90;;;2.97;;
5900;SDS011;2976;49.764;9.796;2022-11-15T12:38:04;3.93;;;3.30;;
5900;SDS011;2976;49.764;9.796;2022-11-15T12:40:34;5.43;;;3.97;;
5900;SDS011;2976;49.764;9.796;2022-11-15T12:43:38;13.80;;;5.33;;
5900;SDS011;2976;49.764;9.796;2022-11-15T12:46:05;8.40;;;3.80;;
5900;SDS011;2976;49.764;9.796;2022-11-15T12:51:02;4.97;;;3.87;;
5900;SDS011;2976;49.764;9.796;2022-11-15T12:53:32;3.90;;;3.10;;
5900;SDS011;2976;49.764;9.796;2022-11-15T13:06:48;6.37;;;3.30;;
5900;SDS011;2976;49.764;9.796;2022-11-15T13:12:10;3.17;;;2.20;;
5900;SDS011;2976;49.764;9.796;2022-11-15T13:19:52;3.83;;;2.57;;
5900;SDS011;2976;49.764;9.796;2022-11-15T13:22:25;3.27;;;2.80;;
5900;SDS011;2976;49.764;9.796;2022-11-15T13:25:40;7.27;;;2.30;;
5900;SDS011;2976;49.764;9.796;2022-11-15T13:31:29;7.33;;;3.10;;
5900;SDS011;2976;49.764;9.796;2022-11-15T13:36:57;7.63;;;3.33;;
5900;SDS011;2976;49.764;9.796;2022-11-15T13:41:53;10.60;;;4.47;;
5900;SDS011;2976;49.764;9.796;2022-11-15T13:44:27;6.30;;;4.00;;
5900;SDS011;2976;49.764;9.796;2022-11-15T13:47:00;5.47;;;3.80;;
5900;SDS011;2976;49.764;9.796;2022-11-15T13:49:31;9.83;;;4.43;;
5900;SDS011;2976;49.764;9.796;2022-11-15T13:51:58;5.87;;;4.30;;
5900;SDS011;2976;49.764;9.796;2022-11-15T13:57:14;5.60;;;4.07;;
5900;SDS011;2976;49.764;9.796;2022-11-15T13:59:46;8.10;;;4.90;;
5900;SDS011;2976;49.764;9.796;2022-11-15T14:02:25;8.40;;;3.93;;
5900;SDS011;2976;49.764;9.796;2022-11-15T14:04:57;7.20;;;4.13;;
5900;SDS011;2976;49.764;9.796;2022-11-15T14:07:57;8.70;;;4.43;;
5900;SDS011;2976;49.764;9.796;2022-11-15T14:10:46;10.50;;;4.83;;
5900;SDS011;2976;49.764;9.796;2022-11-15T14:15:54;11.50;;;4.80;;
5900;SDS011;2976;49.764;9.796;2022-11-15T14:18:39;8.60;;;4.20;;
5900;SDS011;2976;49.764;9.796;2022-11-15T14:21:10;6.50;;;4.70;;
5900;SDS011;2976;49.764;9.796;2022-11-15T14:23:36;13.60;;;4.97;;
5900;SDS011;2976;49.764;9.796;2022-11-15T14:26:01;9.40;;;5.17;;
5900;SDS011;2976;49.764;9.796;2022-11-15T14:28:31;5.37;;;4.47;;
5900;SDS011;2976;49.764;9.796;2022-11-15T14:31:01;9.87;;;4.23;;
5900;SDS011;2976;49.764;9.796;2022-11-15T14:35:59;10.17;;;4.03;;
5900;SDS011;2976;49.764;9.796;2022-11-15T14:38:35;5.27;;;4.10;;
5900;SDS011;2976;49.764;9.796;2022-11-15T14:41:00;6.43;;;3.70;;
5900;SDS011;2976;49.764;9.796;2022-11-15T14:43:26;7.23;;;4.73;;
5900;SDS011;2976;49.764;9.796;2022-11-15T14:45:52;6.97;;;4.10;;
5900;SDS011;2976;49.764;9.796;2022-11-15T14:48:17;4.60;;;3.87;;
5900;SDS011;2976;49.764;9.796;2022-11-15T14:50:43;6.40;;;4.20;;
5900;SDS011;2976;49.764;9.796;2022-11-15T14:53:16;7.23;;;5.33;;
5900;SDS011;2976;49.764;9.796;2022-11-15T14:55:43;12.60;;;5.33;;
5900;SDS011;2976;49.764;9.796;2022-11-15T14:58:09;14.60;;;7.60;;
5900;SDS011;2976;49.764;9.796;2022-11-15T15:00:35;10.33;;;5.03;;
5900;SDS011;2976;49.764;9.796;2022-11-15T15:03:03;6.60;;;5.63;;
5900;SDS011;2976;49.764;9.796;2022-11-15T15:05:37;8.43;;;5.60;;
5900;SDS011;2976;49.764;9.796;2022-11-15T15:08:08;10.73;;;6.43;;
5900;SDS011;2976;49.764;9.796;2022-11-15T15:10:38;11.70;;;5.60;;
5900;SDS011;2976;49.764;9.796;2022-11-15T15:13:10;7.50;;;5.07;;
5900;SDS011;2976;49.764;9.796;2022-11-15T15:15:41;6.87;;;5.10;;
5900;SDS011;2976;49.764;9.796;2022-11-15T15:18:07;10.57;;;5.70;;
5900;SDS011;2976;49.764;9.796;2022-11-15T15:20:34;11.83;;;5.50;;
5900;SDS011;2976;49.764;9.796;2022-11-15T15:23:01;8.87;;;5.70;;
5900;SDS011;2976;49.764;9.796;2022-11-15T15:25:33;10.77;;;6.10;;
5900;SDS011;2976;49.764;9.796;2022-11-15T15:28:00;7.00;;;4.57;;
5900;SDS011;2976;49.764;9.796;2022-11-15T15:30:27;5.00;;;4.10;;
5900;SDS011;2976;49.764;9.796;2022-11-15T15:32:54;4.73;;;4.20;;
5900;SDS011;2976;49.764;9.796;2022-11-15T15:35:20;8.40;;;5.00;;
5900;SDS011;2976;49.764;9.796;2022-11-15T15:37:46;5.33;;;4.80;;
5900;SDS011;2976;49.764;9.796;2022-11-15T15:40:16;11.00;;;4.60;;
5900;SDS011;2976;49.764;9.796;2022-11-15T15:42:44;9.03;;;4.63;;
5900;SDS011;2976;49.764;9.796;2022-11-15T15:45:10;10.07;;;5.30;;
5900;SDS011;2976;49.764;9.796;2022-11-15T15:47:36;14.73;;;8.40;;
5900;SDS011;2976;49.764;9.796;2022-11-15T15:50:02;11.60;;;4.97;;
5900;SDS011;2976;49.764;9.796;2022-11-15T15:52:28;6.90;;;4.90;;
5900;SDS011;2976;49.764;9.796;2022-11-15T15:54:54;11.47;;;4.53;;
5900;SDS011;2976;49.764;9.796;2022-11-15T15:57:19;6.10;;;4.63;;
5900;SDS011;2976;49.764;9.796;2022-11-15T15:59:45;9.73;;;4.93;;
5900;SDS011;2976;49.764;9.796;2022-11-15T16:02:11;7.90;;;4.90;;
5900;SDS011;2976;49.764;9.796;2022-11-15T16:04:37;5.77;;;4.43;;
5900;SDS011;2976;49.764;9.796;2022-11-15T16:07:03;7.97;;;4.67;;
5900;SDS011;2976;49.764;9.796;2022-11-15T16:09:29;6.20;;;5.17;;
5900;SDS011;2976;49.764;9.796;2022-11-15T16:12:13;9.60;;;6.10;;
5900;SDS011;2976;49.764;9.796;2022-11-15T16:14:41;7.70;;;5.60;;
5900;SDS011;2976;49.764;9.796;2022-11-15T16:17:29;11.50;;;7.20;;
5900;SDS011;2976;49.764;9.796;2022-11-15T16:19:58;6.73;;;4.83;;
5900;SDS011;2976;49.764;9.796;2022-11-15T16:22:23;8.67;;;4.63;;
5900;SDS011;2976;49.764;9.796;2022-11-15T16:24:49;8.00;;;4.27;;
5900;SDS011;2976;49.764;9.796;2022-11-15T16:27:18;5.53;;;4.63;;
5900;SDS011;2976;49.764;9.796;2022-11-15T16:29:45;8.97;;;5.90;;
5900;SDS011;2976;49.764;9.796;2022-11-15T16:32:11;6.40;;;4.43;;
5900;SDS011;2976;49.764;9.796;2022-11-15T16:34:37;9.57;;;4.57;;
5900;SDS011;2976;49.764;9.796;2022-11-15T16:37:03;8.97;;;4.40;;
5900;SDS011;2976;49.764;9.796;2022-11-15T16:39:29;6.83;;;4.80;;
5900;SDS011;2976;49.764;9.796;2022-11-15T16:41:56;6.03;;;3.87;;
5900;SDS011;2976;49.764;9.796;2022-11-15T16:44:22;6.80;;;4.60;;
5900;SDS011;2976;49.764;9.796;2022-11-15T16:46:48;19.03;;;8.43;;
5900;SDS011;2976;49.764;9.796;2022-11-15T16:49:16;22.20;;;12.90;;
5900;SDS011;2976;49.764;9.796;2022-11-15T16:51:46;17.60;;;10.50;;
5900;SDS011;2976;49.764;9.796;2022-11-15T16:54:12;9.13;;;5.93;;
5900;SDS011;2976;49.764;9.796;2022-11-15T16:56:39;7.13;;;5.10;;
5900;SDS011;2976;49.764;9.796;2022-11-15T16:59:05;9.60;;;5.27;;
5900;SDS011;2976;49.764;9.796;2022-11-15T17:01:34;7.10;;;5.50;;
5900;SDS011;2976;49.764;9.796;2022-11-15T17:04:10;9.97;;;5.27;;
5900;SDS011;2976;49.764;9.796;2022-11-15T17:06:37;6.90;;;4.57;;
5900;SDS011;2976;49.764;9.796;2022-11-15T17:09:04;4.33;;;3.93;;
5900;SDS011;2976;49.764;9.796;2022-11-15T17:11:30;7.20;;;4.00;;
5900;SDS011;2976;49.764;9.796;2022-11-15T17:13:56;6.30;;;4.70;;
5900;SDS011;2976;49.764;9.796;2022-11-15T17:16:23;6.57;;;5.23;;
5900;SDS011;2976;49.764;9.796;2022-11-15T17:18:49;7.97;;;4.40;;
5900;SDS011;2976;49.764;9.796;2022-11-15T17:21:16;5.87;;;4.80;;
5900;SDS011;2976;49.764;9.796;2022-11-15T17:23:43;6.70;;;4.50;;
5900;SDS011;2976;49.764;9.796;2022-11-15T17:26:10;9.50;;;4.20;;
5900;SDS011;2976;49.764;9.796;2022-11-15T17:28:36;6.10;;;4.60;;
5900;SDS011;2976;49.764;9.796;2022-11-15T17:31:05;7.97;;;4.47;;
5900;SDS011;2976;49.764;9.796;2022-11-15T17:33:33;5.87;;;4.80;;
5900;SDS011;2976;49.764;9.796;2022-11-15T17:35:59;6.63;;;5.13;;
5900;SDS011;2976;49.764;9.796;2022-11-15T17:38:27;11.10;;;5.30;;